sensor_id;sensor_type;location;lat;lon;timestamp;pressure;altitude;pressure_sealevel;temperature;humidity
64644;BME280;51056;50.330;7.914;2024-03-22T00:00:37;101347.28;;;8.91;95.82
64644;BME280;51056;50.330;7.914;2024-03-22T00:03:41;101343.94;;;8.86;95.75
64644;BME280;51056;50.330;7.914;2024-03-22T00:06:46;101346.06;;;8.75;96.49
64644;BME280;51056;50.330;7.914;2024-03-22T00:09:50;101339.88;;;8.77;96.87
64644;BME280;51056;50.330;7.914;2024-03-22T00:12:53;101335.63;;;8.75;96.59
64644;BME280;51056;50.330;7.914;2024-03-22T00:15:56;101329.84;;;8.65;96.44
64644;BME280;51056;50.330;7.914;2024-03-22T00:18:59;101323.88;;;8.61;96.26
64644;BME280;51056;50.330;7.914;2024-03-22T00:22:02;101318.53;;;8.65;96.16
64644;BME280;51056;50.330;7.914;2024-03-22T00:25:06;101320.19;;;8.69;96.01
64644;BME280;51056;50.330;7.914;2024-03-22T00:28:09;101318.66;;;8.61;96.08
64644;BME280;51056;50.330;7.914;2024-03-22T00:31:12;101312.75;;;8.56;95.81
64644;BME280;51056;50.330;7.914;2024-03-22T00:34:15;101310.03;;;8.59;95.73
64644;BME280;51056;50.330;7.914;2024-03-22T00:37:19;101311.22;;;8.49;96.28
64644;BME280;51056;50.330;7.914;2024-03-22T00:40:22;101315.69;;;8.46;96.98
64644;BME280;51056;50.330;7.914;2024-03-22T00:43:25;101314.16;;;8.38;97.31
64644;BME280;51056;50.330;7.914;2024-03-22T00:46:29;101306.38;;;8.35;97.49
64644;BME280;51056;50.330;7.914;2024-03-22T00:49:32;101302.94;;;8.35;97.50
64644;BME280;51056;50.330;7.914;2024-03-22T00:52:35;101303.00;;;8.33;97.53
64644;BME280;51056;50.330;7.914;2024-03-22T00:55:39;101298.63;;;8.34;96.75
64644;BME280;51056;50.330;7.914;2024-03-22T00:58:42;101292.97;;;8.20;96.87
64644;BME280;51056;50.330;7.914;2024-03-22T01:01:45;101295.63;;;8.18;97.63
64644;BME280;51056;50.330;7.914;2024-03-22T01:04:49;101299.81;;;8.24;96.66
64644;BME280;51056;50.330;7.914;2024-03-22T01:07:52;101310.59;;;8.11;96.61
64644;BME280;51056;50.330;7.914;2024-03-22T01:10:55;101300.19;;;8.11;96.74
64644;BME280;51056;50.330;7.914;2024-03-22T01:13:58;101284.56;;;8.10;96.87
64644;BME280;51056;50.330;7.914;2024-03-22T01:17:01;101286.72;;;8.25;95.97
64644;BME280;51056;50.330;7.914;2024-03-22T01:20:04;101286.41;;;8.08;95.79
64644;BME280;51056;50.330;7.914;2024-03-22T01:23:07;101291.97;;;7.96;96.77
64644;BME280;51056;50.330;7.914;2024-03-22T01:26:11;101283.66;;;8.12;96.58
64644;BME280;51056;50.330;7.914;2024-03-22T01:29:14;101279.34;;;8.11;96.02
64644;BME280;51056;50.330;7.914;2024-03-22T01:32:17;101274.56;;;8.26;95.73
64644;BME280;51056;50.330;7.914;2024-03-22T01:35:20;101269.94;;;8.07;95.72
64644;BME280;51056;50.330;7.914;2024-03-22T01:38:23;101268.25;;;8.05;96.22
64644;BME280;51056;50.330;7.914;2024-03-22T01:41:27;101271.06;;;7.97;96.36
64644;BME280;51056;50.330;7.914;2024-03-22T01:44:31;101264.41;;;7.88;97.03
64644;BME280;51056;50.330;7.914;2024-03-22T01:47:34;101261.91;;;7.84;97.76
64644;BME280;51056;50.330;7.914;2024-03-22T01:50:38;101260.13;;;7.86;97.76
64644;BME280;51056;50.330;7.914;2024-03-22T01:53:41;101256.44;;;7.93;97.34
64644;BME280;51056;50.330;7.914;2024-03-22T01:56:45;101245.84;;;7.99;96.47
64644;BME280;51056;50.330;7.914;2024-03-22T01:59:48;101259.59;;;8.04;96.31
64644;BME280;51056;50.330;7.914;2024-03-22T02:02:52;101259.19;;;7.88;96.60
64644;BME280;51056;50.330;7.914;2024-03-22T02:05:55;101261.91;;;7.84;97.68
64644;BME280;51056;50.330;7.914;2024-03-22T02:08:58;101254.19;;;7.81;97.48
64644;BME280;51056;50.330;7.914;2024-03-22T02:12:02;101266.19;;;7.86;98.03
64644;BME280;51056;50.330;7.914;2024-03-22T02:15:05;101254.75;;;7.92;96.75
64644;BME280;51056;50.330;7.914;2024-03-22T02:18:09;101248.19;;;7.79;96.90
64644;BME280;51056;50.330;7.914;2024-03-22T02:21:12;101240.69;;;7.68;98.00
64644;BME280;51056;50.330;7.914;2024-03-22T02:24:15;101233.78;;;7.67;98.08
64644;BME280;51056;50.330;7.914;2024-03-22T02:27:18;101230.34;;;7.65;98.47
64644;BME280;51056;50.330;7.914;2024-03-22T02:30:21;101235.66;;;7.62;98.14
64644;BME280;51056;50.330;7.914;2024-03-22T02:33:23;101228.75;;;7.61;98.93
64644;BME280;51056;50.330;7.914;2024-03-22T02:36:27;101224.56;;;7.55;99.17
64644;BME280;51056;50.330;7.914;2024-03-22T02:39:31;101218.66;;;7.50;99.29
64644;BME280;51056;50.330;7.914;2024-03-22T02:42:33;101222.19;;;7.48;99.40
64644;BME280;51056;50.330;7.914;2024-03-22T02:45:37;101216.13;;;7.47;98.83
64644;BME280;51056;50.330;7.914;2024-03-22T02:48:40;101212.81;;;7.42;99.47
64644;BME280;51056;50.330;7.914;2024-03-22T02:51:43;101206.56;;;7.48;99.39
64644;BME280;51056;50.330;7.914;2024-03-22T02:54:46;101200.53;;;7.47;99.67
64644;BME280;51056;50.330;7.914;2024-03-22T02:57:49;101196.16;;;7.48;99.51
64644;BME280;51056;50.330;7.914;2024-03-22T03:00:53;101183.91;;;7.51;98.87
64644;BME280;51056;50.330;7.914;2024-03-22T03:03:56;101182.16;;;7.52;99.24
64644;BME280;51056;50.330;7.914;2024-03-22T03:06:59;101176.28;;;7.45;99.58
64644;BME280;51056;50.330;7.914;2024-03-22T03:10:02;101175.53;;;7.41;100.00
64644;BME280;51056;50.330;7.914;2024-03-22T03:13:06;101169.47;;;7.41;100.00
64644;BME280;51056;50.330;7.914;2024-03-22T03:16:09;101167.81;;;7.38;100.00
64644;BME280;51056;50.330;7.914;2024-03-22T03:19:12;101172.69;;;7.49;100.00
64644;BME280;51056;50.330;7.914;2024-03-22T03:22:15;101164.09;;;7.47;99.42
64644;BME280;51056;50.330;7.914;2024-03-22T03:25:18;101169.56;;;7.38;99.80
64644;BME280;51056;50.330;7.914;2024-03-22T03:28:21;101161.84;;;7.35;100.00
64644;BME280;51056;50.330;7.914;2024-03-22T03:31:24;101163.44;;;7.39;99.95
64644;BME280;51056;50.330;7.914;2024-03-22T03:34:27;101148.56;;;7.44;99.38
64644;BME280;51056;50.330;7.914;2024-03-22T03:37:30;101156.38;;;7.44;98.84
64644;BME280;51056;50.330;7.914;2024-03-22T03:40:33;101149.69;;;7.35;99.85
64644;BME280;51056;50.330;7.914;2024-03-22T03:43:37;101143.72;;;7.32;99.72
64644;BME280;51056;50.330;7.914;2024-03-22T03:46:40;101139.44;;;7.29;100.00
64644;BME280;51056;50.330;7.914;2024-03-22T03:49:45;101143.81;;;7.29;99.57
64644;BME280;51056;50.330;7.914;2024-03-22T03:52:47;101132.66;;;7.23;99.33
64644;BME280;51056;50.330;7.914;2024-03-22T03:55:50;101130.16;;;7.20;99.93
64644;BME280;51056;50.330;7.914;2024-03-22T03:58:53;101124.19;;;7.17;100.00
64644;BME280;51056;50.330;7.914;2024-03-22T04:01:57;101123.34;;;7.16;100.00
64644;BME280;51056;50.330;7.914;2024-03-22T04:05:00;101119.66;;;7.23;100.00
64644;BME280;51056;50.330;7.914;2024-03-22T04:08:03;101118.88;;;7.21;100.00
64644;BME280;51056;50.330;7.914;2024-03-22T04:11:06;101116.28;;;7.21;100.00
64644;BME280;51056;50.330;7.914;2024-03-22T04:14:08;101122.91;;;7.32;100.00
64644;BME280;51056;50.330;7.914;2024-03-22T04:17:11;101117.44;;;7.41;99.66
64644;BME280;51056;50.330;7.914;2024-03-22T04:20:14;101126.28;;;7.34;99.95
64644;BME280;51056;50.330;7.914;2024-03-22T04:23:18;101125.28;;;7.39;100.00
64644;BME280;51056;50.330;7.914;2024-03-22T04:26:20;101112.22;;;7.41;100.00
64644;BME280;51056;50.330;7.914;2024-03-22T04:29:24;101108.91;;;7.36;100.00
64644;BME280;51056;50.330;7.914;2024-03-22T04:32:27;101117.72;;;7.32;100.00
64644;BME280;51056;50.330;7.914;2024-03-22T04:35:30;101118.63;;;7.29;100.00
64644;BME280;51056;50.330;7.914;2024-03-22T04:38:32;101117.88;;;7.26;100.00
64644;BME280;51056;50.330;7.914;2024-03-22T04:41:36;101113.50;;;7.28;100.00
64644;BME280;51056;50.330;7.914;2024-03-22T04:44:39;101115.09;;;7.32;100.00
64644;BME280;51056;50.330;7.914;2024-03-22T04:47:43;101110.31;;;7.46;100.00
64644;BME280;51056;50.330;7.914;2024-03-22T04:50:47;101110.16;;;7.52;99.79
64644;BME280;51056;50.330;7.914;2024-03-22T04:53:53;101110.31;;;7.46;99.77
64644;BME280;51056;50.330;7.914;2024-03-22T04:56:55;101108.91;;;7.36;100.00
64644;BME280;51056;50.330;7.914;2024-03-22T04:59:59;101109.00;;;7.33;100.00
64644;BME280;51056;50.330;7.914;2024-03-22T05:03:02;101110.97;;;7.25;100.00
64644;BME280;51056;50.330;7.914;2024-03-22T05:06:05;101103.22;;;7.23;100.00
64644;BME280;51056;50.330;7.914;2024-03-22T05:09:09;101105.69;;;7.28;100.00
64644;BME280;51056;50.330;7.914;2024-03-22T05:12:12;101103.50;;;7.43;100.00
64644;BME280;51056;50.330;7.914;2024-03-22T05:15:16;101109.63;;;7.41;100.00
64644;BME280;51056;50.330;7.914;2024-03-22T05:18:19;101113.09;;;7.40;100.00
64644;BME280;51056;50.330;7.914;2024-03-22T05:21:22;101102.69;;;7.40;100.00
64644;BME280;51056;50.330;7.914;2024-03-22T05:24:25;101102.44;;;7.49;100.00
64644;BME280;51056;50.330;7.914;2024-03-22T05:27:30;101103.53;;;7.42;100.00
64644;BME280;51056;50.330;7.914;2024-03-22T05:30:33;101095.09;;;7.62;100.00
64644;BME280;51056;50.330;7.914;2024-03-22T05:33:39;101090.97;;;7.56;100.00
64644;BME280;51056;50.330;7.914;2024-03-22T05:36:42;101090.25;;;7.51;100.00
64644;BME280;51056;50.330;7.914;2024-03-22T05:39:45;101084.84;;;7.57;100.00
64644;BME280;51056;50.330;7.914;2024-03-22T05:46:40;101082.28;;;7.56;100.00
64644;BME280;51056;50.330;7.914;2024-03-22T05:49:43;101077.13;;;7.54;100.00
64644;BME280;51056;50.330;7.914;2024-03-22T05:52:46;101081.31;;;7.60;100.00
64644;BME280;51056;50.330;7.914;2024-03-22T05:55:52;101074.91;;;7.70;100.00
64644;BME280;51056;50.330;7.914;2024-03-22T05:58:55;101078.44;;;7.67;100.00
64644;BME280;51056;50.330;7.914;2024-03-22T06:01:57;101075.03;;;7.65;100.00
64644;BME280;51056;50.330;7.914;2024-03-22T06:05:01;101072.13;;;7.75;100.00
64644;BME280;51056;50.330;7.914;2024-03-22T06:08:06;101071.47;;;7.69;100.00
64644;BME280;51056;50.330;7.914;2024-03-22T06:11:11;101066.25;;;7.69;100.00
64644;BME280;51056;50.330;7.914;2024-03-22T06:14:14;101076.66;;;7.69;100.00
64644;BME280;51056;50.330;7.914;2024-03-22T06:17:17;101072.41;;;7.67;100.00
64644;BME280;51056;50.330;7.914;2024-03-22T06:20:21;101066.25;;;7.69;100.00
64644;BME280;51056;50.330;7.914;2024-03-22T06:23:24;101061.63;;;7.78;100.00
64644;BME280;51056;50.330;7.914;2024-03-22T06:26:28;101059.03;;;7.78;100.00
64644;BME280;51056;50.330;7.914;2024-03-22T06:29:31;101054.53;;;7.83;100.00
64644;BME280;51056;50.330;7.914;2024-03-22T06:32:34;101049.38;;;7.81;100.00
64644;BME280;51056;50.330;7.914;2024-03-22T06:35:37;101045.81;;;7.84;100.00
64644;BME280;51056;50.330;7.914;2024-03-22T06:38:40;101040.22;;;7.96;100.00
64644;BME280;51056;50.330;7.914;2024-03-22T06:41:45;101033.22;;;7.98;100.00
64644;BME280;51056;50.330;7.914;2024-03-22T06:44:59;101034.91;;;7.99;100.00
64644;BME280;51056;50.330;7.914;2024-03-22T06:48:32;101025.72;;;8.14;100.00
64644;BME280;51056;50.330;7.914;2024-03-22T06:51:35;101028.06;;;8.22;100.00
64644;BME280;51056;50.330;7.914;2024-03-22T06:54:46;101031.78;;;8.14;100.00
64644;BME280;51056;50.330;7.914;2024-03-22T06:58:23;101021.69;;;8.30;99.92
64644;BME280;51056;50.330;7.914;2024-03-22T07:01:27;101019.88;;;8.32;99.86
64644;BME280;51056;50.330;7.914;2024-03-22T07:04:31;101018.13;;;8.33;99.84
64644;BME280;51056;50.330;7.914;2024-03-22T07:07:34;101020.31;;;8.45;99.57
64644;BME280;51056;50.330;7.914;2024-03-22T07:10:41;101015.91;;;8.47;99.24
64644;BME280;51056;50.330;7.914;2024-03-22T07:13:44;101013.31;;;8.47;99.55
64644;BME280;51056;50.330;7.914;2024-03-22T07:16:48;101012.28;;;8.51;99.80
64644;BME280;51056;50.330;7.914;2024-03-22T07:19:51;101004.13;;;8.60;99.50
64644;BME280;51056;50.330;7.914;2024-03-22T07:22:54;101002.88;;;8.71;99.69
64644;BME280;51056;50.330;7.914;2024-03-22T07:25:57;100999.38;;;8.72;99.51
64644;BME280;51056;50.330;7.914;2024-03-22T07:29:00;100989.81;;;8.72;99.78
64644;BME280;51056;50.330;7.914;2024-03-22T07:32:05;100996.72;;;8.73;99.71
64644;BME280;51056;50.330;7.914;2024-03-22T07:35:08;100986.84;;;8.81;100.00
64644;BME280;51056;50.330;7.914;2024-03-22T07:38:11;100986.13;;;8.78;100.00
64644;BME280;51056;50.330;7.914;2024-03-22T07:41:18;100987.25;;;8.71;100.00
64644;BME280;51056;50.330;7.914;2024-03-22T07:44:21;100988.13;;;8.93;100.00
64644;BME280;51056;50.330;7.914;2024-03-22T07:47:27;100978.75;;;9.11;99.81
64644;BME280;51056;50.330;7.914;2024-03-22T07:50:30;100978.88;;;9.30;99.73
64644;BME280;51056;50.330;7.914;2024-03-22T07:53:33;100980.94;;;9.44;97.11
64644;BME280;51056;50.330;7.914;2024-03-22T07:56:36;100971.78;;;9.55;96.89
64644;BME280;51056;50.330;7.914;2024-03-22T07:59:42;100963.56;;;9.65;96.38
64644;BME280;51056;50.330;7.914;2024-03-22T08:02:46;100962.34;;;9.73;96.25
64644;BME280;51056;50.330;7.914;2024-03-22T08:05:50;100959.53;;;9.78;96.83
64644;BME280;51056;50.330;7.914;2024-03-22T08:08:54;100954.63;;;9.91;95.69
64644;BME280;51056;50.330;7.914;2024-03-22T08:12:01;100951.28;;;10.08;94.17
64644;BME280;51056;50.330;7.914;2024-03-22T08:15:03;100949.19;;;10.16;94.30
64644;BME280;51056;50.330;7.914;2024-03-22T08:18:08;100942.72;;;10.24;94.08
64644;BME280;51056;50.330;7.914;2024-03-22T08:21:11;100932.88;;;10.31;94.10
64644;BME280;51056;50.330;7.914;2024-03-22T08:24:14;100930.75;;;10.39;93.66
64644;BME280;51056;50.330;7.914;2024-03-22T08:27:17;100919.88;;;10.48;95.04
64644;BME280;51056;50.330;7.914;2024-03-22T08:30:20;100920.25;;;10.60;93.84
64644;BME280;51056;50.330;7.914;2024-03-22T08:33:24;100916.28;;;10.70;93.19
64644;BME280;51056;50.330;7.914;2024-03-22T08:36:27;100911.34;;;10.64;93.32
64644;BME280;51056;50.330;7.914;2024-03-22T08:39:30;100906.63;;;10.72;92.92
64644;BME280;51056;50.330;7.914;2024-03-22T08:42:33;100899.81;;;10.68;95.58
64644;BME280;51056;50.330;7.914;2024-03-22T08:45:36;100899.38;;;10.77;94.67
64644;BME280;51056;50.330;7.914;2024-03-22T08:48:39;100899.38;;;10.77;94.97
64644;BME280;51056;50.330;7.914;2024-03-22T08:51:42;100886.66;;;10.88;93.78
64644;BME280;51056;50.330;7.914;2024-03-22T08:54:45;100876.59;;;10.98;92.86
64644;BME280;51056;50.330;7.914;2024-03-22T08:57:50;100885.94;;;11.21;91.91
64644;BME280;51056;50.330;7.914;2024-03-22T09:00:52;100870.53;;;11.32;92.69
64644;BME280;51056;50.330;7.914;2024-03-22T09:03:56;100859.81;;;11.54;91.17
64644;BME280;51056;50.330;7.914;2024-03-22T09:07:00;100853.97;;;11.67;91.22
64644;BME280;51056;50.330;7.914;2024-03-22T09:10:02;100850.47;;;11.83;89.20
64644;BME280;51056;50.330;7.914;2024-03-22T09:13:06;100847.78;;;12.18;84.11
64644;BME280;51056;50.330;7.914;2024-03-22T09:16:09;100849.53;;;12.67;78.94
64644;BME280;51056;50.330;7.914;2024-03-22T09:19:11;100842.63;;;12.96;76.61
64644;BME280;51056;50.330;7.914;2024-03-22T09:22:14;100838.75;;;13.17;74.38
64644;BME280;51056;50.330;7.914;2024-03-22T09:25:17;100840.50;;;13.33;73.55
64644;BME280;51056;50.330;7.914;2024-03-22T09:28:21;100835.72;;;13.25;74.46
64644;BME280;51056;50.330;7.914;2024-03-22T09:31:24;100828.44;;;13.44;73.33
64644;BME280;51056;50.330;7.914;2024-03-22T09:34:26;100833.81;;;13.57;72.37
64644;BME280;51056;50.330;7.914;2024-03-22T09:37:29;100833.09;;;13.69;71.75
64644;BME280;51056;50.330;7.914;2024-03-22T09:40:32;100824.25;;;13.70;71.91
64644;BME280;51056;50.330;7.914;2024-03-22T09:43:35;100815.59;;;13.68;72.51
64644;BME280;51056;50.330;7.914;2024-03-22T09:46:40;100811.31;;;13.82;71.31
64644;BME280;51056;50.330;7.914;2024-03-22T09:49:45;100816.56;;;13.96;70.96
64644;BME280;51056;50.330;7.914;2024-03-22T09:56:45;100798.88;;;14.12;69.94
64644;BME280;51056;50.330;7.914;2024-03-22T09:59:51;100805.25;;;14.23;69.80
64644;BME280;51056;50.330;7.914;2024-03-22T10:02:54;100790.59;;;14.33;68.76
64644;BME280;51056;50.330;7.914;2024-03-22T10:05:57;100785.03;;;14.37;68.46
64644;BME280;51056;50.330;7.914;2024-03-22T10:09:01;100783.69;;;14.45;67.67
64644;BME280;51056;50.330;7.914;2024-03-22T10:12:05;100789.88;;;14.58;67.29
64644;BME280;51056;50.330;7.914;2024-03-22T10:15:08;100790.53;;;14.61;67.04
64644;BME280;51056;50.330;7.914;2024-03-22T10:18:12;100780.75;;;14.63;66.69
64644;BME280;51056;50.330;7.914;2024-03-22T10:21:18;100785.16;;;14.63;66.20
64644;BME280;51056;50.330;7.914;2024-03-22T10:24:23;100764.56;;;14.70;66.04
64644;BME280;51056;50.330;7.914;2024-03-22T10:27:27;100746.38;;;14.79;65.92
64644;BME280;51056;50.330;7.914;2024-03-22T10:30:32;100768.69;;;14.86;65.45
64644;BME280;51056;50.330;7.914;2024-03-22T10:33:37;100754.00;;;14.97;65.57
64644;BME280;51056;50.330;7.914;2024-03-22T10:36:40;100742.09;;;15.04;64.95
64644;BME280;51056;50.330;7.914;2024-03-22T10:39:44;100740.31;;;15.17;64.47
64644;BME280;51056;50.330;7.914;2024-03-22T10:42:48;100750.44;;;15.23;63.79
64644;BME280;51056;50.330;7.914;2024-03-22T10:45:52;100735.16;;;15.28;63.19
64644;BME280;51056;50.330;7.914;2024-03-22T10:48:58;100722.28;;;15.37;62.86
64644;BME280;51056;50.330;7.914;2024-03-22T10:52:01;100719.44;;;15.40;62.93
64644;BME280;51056;50.330;7.914;2024-03-22T10:55:05;100719.66;;;15.49;62.40
64644;BME280;51056;50.330;7.914;2024-03-22T10:58:23;100702.44;;;15.56;63.04
64644;BME280;51056;50.330;7.914;2024-03-22T11:01:26;100703.28;;;15.57;61.91
64644;BME280;51056;50.330;7.914;2024-03-22T11:04:32;100692.78;;;15.70;61.44
64644;BME280;51056;50.330;7.914;2024-03-22T11:07:35;100699.00;;;15.69;61.27
64644;BME280;51056;50.330;7.914;2024-03-22T11:10:38;100697.81;;;15.73;61.24
64644;BME280;51056;50.330;7.914;2024-03-22T11:13:41;100694.13;;;15.63;61.06
64644;BME280;51056;50.330;7.914;2024-03-22T11:16:45;100691.59;;;15.74;61.14
64644;BME280;51056;50.330;7.914;2024-03-22T11:19:48;100686.97;;;15.77;60.76
64644;BME280;51056;50.330;7.914;2024-03-22T11:22:52;100689.91;;;15.73;60.66
64644;BME280;51056;50.330;7.914;2024-03-22T11:25:56;100682.13;;;15.71;59.90
64644;BME280;51056;50.330;7.914;2024-03-22T11:29:01;100677.69;;;15.72;60.05
64644;BME280;51056;50.330;7.914;2024-03-22T11:32:11;100683.56;;;15.75;59.30
64644;BME280;51056;50.330;7.914;2024-03-22T11:35:26;100674.75;;;15.64;59.19
64644;BME280;51056;50.330;7.914;2024-03-22T11:38:30;100674.09;;;15.73;59.08
64644;BME280;51056;50.330;7.914;2024-03-22T11:41:33;100668.59;;;15.63;58.03
64644;BME280;51056;50.330;7.914;2024-03-22T11:44:37;100664.28;;;15.62;58.34
64644;BME280;51056;50.330;7.914;2024-03-22T11:47:45;100666.66;;;15.67;58.54
64644;BME280;51056;50.330;7.914;2024-03-22T11:50:50;100664.06;;;15.65;56.90
64644;BME280;51056;50.330;7.914;2024-03-22T11:54:23;100658.19;;;15.62;57.32
64644;BME280;51056;50.330;7.914;2024-03-22T11:57:29;100659.13;;;15.61;57.52
64644;BME280;51056;50.330;7.914;2024-03-22T12:00:31;100641.63;;;15.59;57.65
64644;BME280;51056;50.330;7.914;2024-03-22T12:03:35;100650.56;;;15.57;56.53
64644;BME280;51056;50.330;7.914;2024-03-22T12:06:38;100649.25;;;15.51;56.26
64644;BME280;51056;50.330;7.914;2024-03-22T12:09:43;100644.09;;;15.37;56.56
64644;BME280;51056;50.330;7.914;2024-03-22T12:13:07;100651.81;;;15.27;56.85
64644;BME280;51056;50.330;7.914;2024-03-22T12:16:13;100642.72;;;15.31;56.36
64644;BME280;51056;50.330;7.914;2024-03-22T12:23:21;100636.13;;;15.26;58.33
64644;BME280;51056;50.330;7.914;2024-03-22T12:26:41;100632.63;;;15.38;59.05
64644;BME280;51056;50.330;7.914;2024-03-22T12:29:53;100629.03;;;15.39;59.14
64644;BME280;51056;50.330;7.914;2024-03-22T12:33:27;100613.66;;;15.33;59.01
64644;BME280;51056;50.330;7.914;2024-03-22T12:36:31;100620.16;;;15.40;59.01
64644;BME280;51056;50.330;7.914;2024-03-22T12:39:34;100617.25;;;15.32;58.97
64644;BME280;51056;50.330;7.914;2024-03-22T12:42:37;100608.56;;;15.43;58.49
64644;BME280;51056;50.330;7.914;2024-03-22T12:45:41;100597.69;;;15.47;58.47
64644;BME280;51056;50.330;7.914;2024-03-22T12:48:48;100610.25;;;15.44;58.67
64644;BME280;51056;50.330;7.914;2024-03-22T12:51:51;100599.59;;;15.45;56.41
64644;BME280;51056;50.330;7.914;2024-03-22T12:54:54;100598.38;;;15.38;56.75
64644;BME280;51056;50.330;7.914;2024-03-22T12:57:57;100592.56;;;15.33;58.00
64644;BME280;51056;50.330;7.914;2024-03-22T13:01:01;100587.31;;;15.33;57.91
64644;BME280;51056;50.330;7.914;2024-03-22T13:04:05;100597.63;;;15.36;55.82
64644;BME280;51056;50.330;7.914;2024-03-22T13:07:08;100592.16;;;15.63;53.42
64644;BME280;51056;50.330;7.914;2024-03-22T13:10:46;100587.09;;;15.36;53.56
64644;BME280;51056;50.330;7.914;2024-03-22T13:13:50;100585.00;;;15.28;54.54
64644;BME280;51056;50.330;7.914;2024-03-22T13:16:54;100565.44;;;15.20;54.58
64644;BME280;51056;50.330;7.914;2024-03-22T13:19:56;100568.56;;;15.25;54.70
64644;BME280;51056;50.330;7.914;2024-03-22T13:23:00;100562.06;;;15.18;55.17
64644;BME280;51056;50.330;7.914;2024-03-22T13:26:04;100552.34;;;15.18;55.05
64644;BME280;51056;50.330;7.914;2024-03-22T13:29:08;100545.59;;;15.27;55.12
64644;BME280;51056;50.330;7.914;2024-03-22T13:32:11;100543.19;;;15.24;54.32
64644;BME280;51056;50.330;7.914;2024-03-22T13:35:14;100536.31;;;15.21;54.32
64644;BME280;51056;50.330;7.914;2024-03-22T13:38:18;100524.13;;;15.20;54.69
64644;BME280;51056;50.330;7.914;2024-03-22T13:41:20;100526.75;;;15.20;55.01
64644;BME280;51056;50.330;7.914;2024-03-22T13:44:24;100512.19;;;15.27;55.08
64644;BME280;51056;50.330;7.914;2024-03-22T13:47:27;100518.91;;;15.31;55.50
64644;BME280;51056;50.330;7.914;2024-03-22T13:54:26;100504.44;;;15.37;55.92
64644;BME280;51056;50.330;7.914;2024-03-22T13:57:32;100499.94;;;15.39;56.50
64644;BME280;51056;50.330;7.914;2024-03-22T14:00:35;100482.88;;;15.56;56.04
64644;BME280;51056;50.330;7.914;2024-03-22T14:03:42;100483.66;;;15.45;56.58
64644;BME280;51056;50.330;7.914;2024-03-22T14:06:45;100477.78;;;15.42;57.11
64644;BME280;51056;50.330;7.914;2024-03-22T14:09:52;100474.59;;;15.49;57.61
64644;BME280;51056;50.330;7.914;2024-03-22T14:12:55;100470.59;;;15.44;58.11
64644;BME280;51056;50.330;7.914;2024-03-22T14:15:58;100462.06;;;15.40;58.08
64644;BME280;51056;50.330;7.914;2024-03-22T14:19:06;100464.50;;;15.43;57.92
64644;BME280;51056;50.330;7.914;2024-03-22T14:22:13;100445.16;;;15.55;57.63
64644;BME280;51056;50.330;7.914;2024-03-22T14:25:16;100422.13;;;18.11;51.11
64644;BME280;51056;50.330;7.914;2024-03-22T14:28:20;100414.03;;;24.18;37.18
64644;BME280;51056;50.330;7.914;2024-03-22T14:31:24;100405.66;;;26.06;33.39
64644;BME280;51056;50.330;7.914;2024-03-22T14:34:28;100401.59;;;25.95;32.62
64644;BME280;51056;50.330;7.914;2024-03-22T14:37:31;100391.34;;;27.38;30.19
64644;BME280;51056;50.330;7.914;2024-03-22T14:40:35;100387.59;;;27.81;29.59
64644;BME280;51056;50.330;7.914;2024-03-22T14:43:39;100383.53;;;26.78;30.57
64644;BME280;51056;50.330;7.914;2024-03-22T14:46:42;100377.00;;;26.51;30.23
64644;BME280;51056;50.330;7.914;2024-03-22T14:49:46;100382.28;;;21.99;37.55
64644;BME280;51056;50.330;7.914;2024-03-22T14:52:51;100372.00;;;25.36;32.51
64644;BME280;51056;50.330;7.914;2024-03-22T14:55:56;100361.41;;;25.95;30.78
64644;BME280;51056;50.330;7.914;2024-03-22T14:59:02;100357.28;;;24.16;33.25
64644;BME280;51056;50.330;7.914;2024-03-22T15:02:09;100359.44;;;20.90;39.57
64644;BME280;51056;50.330;7.914;2024-03-22T15:05:13;100359.97;;;19.64;42.70
64644;BME280;51056;50.330;7.914;2024-03-22T15:08:16;100355.69;;;18.45;45.27
64644;BME280;51056;50.330;7.914;2024-03-22T15:11:19;100357.56;;;18.24;46.23
64644;BME280;51056;50.330;7.914;2024-03-22T15:14:25;100336.03;;;20.58;44.31
64644;BME280;51056;50.330;7.914;2024-03-22T15:17:31;100346.03;;;19.62;44.61
64644;BME280;51056;50.330;7.914;2024-03-22T15:20:35;100329.69;;;18.70;45.10
64644;BME280;51056;50.330;7.914;2024-03-22T15:23:46;100331.84;;;18.95;45.14
64644;BME280;51056;50.330;7.914;2024-03-22T15:26:49;100333.41;;;19.84;43.58
64644;BME280;51056;50.330;7.914;2024-03-22T15:29:52;100329.25;;;19.52;44.35
64644;BME280;51056;50.330;7.914;2024-03-22T15:32:55;100302.56;;;21.01;40.58
64644;BME280;51056;50.330;7.914;2024-03-22T15:35:59;100304.66;;;23.60;36.12
64644;BME280;51056;50.330;7.914;2024-03-22T15:39:04;100309.56;;;23.24;35.96
64644;BME280;51056;50.330;7.914;2024-03-22T15:42:10;100290.66;;;24.14;33.60
64644;BME280;51056;50.330;7.914;2024-03-22T15:45:15;100284.44;;;23.90;34.02
64644;BME280;51056;50.330;7.914;2024-03-22T15:48:19;100273.81;;;25.51;31.54
64644;BME280;51056;50.330;7.914;2024-03-22T15:51:27;100272.06;;;25.44;31.77
64644;BME280;51056;50.330;7.914;2024-03-22T15:54:31;100275.34;;;24.70;32.83
64644;BME280;51056;50.330;7.914;2024-03-22T15:58:01;100266.66;;;24.45;32.62
64644;BME280;51056;50.330;7.914;2024-03-22T16:02:25;100265.31;;;24.95;32.52
64644;BME280;51056;50.330;7.914;2024-03-22T16:10:09;100267.56;;;23.02;34.54
64644;BME280;51056;50.330;7.914;2024-03-22T16:14:05;100265.66;;;20.80;38.17
64644;BME280;51056;50.330;7.914;2024-03-22T16:17:13;100254.50;;;20.77;38.99
64644;BME280;51056;50.330;7.914;2024-03-22T16:20:18;100256.44;;;21.10;38.18
64644;BME280;51056;50.330;7.914;2024-03-22T16:23:25;100261.19;;;20.17;39.24
64644;BME280;51056;50.330;7.914;2024-03-22T16:26:32;100255.19;;;19.41;39.97
64644;BME280;51056;50.330;7.914;2024-03-22T16:29:38;100248.38;;;21.38;36.62